Time;durP1;ratioP1;P1;durP2;ratioP2;P2;SDS_P1;SDS_P2;PMS_P1;PMS_P2;Temp;Humidity;BMP_temperature;BMP_pressure;BME280_temperature;BME280_humidity;BME280_pressure;Samples;Min_cycle;Max_cycle;Signal;HPM_P1;HPM_P2
2023/03/17 00:00:26;;;;;;;2.42;1.65;;;;;;;6.16;87.40;100701.06;4906204;29;20028;-96
2023/03/17 00:02:58;;;;;;;4.63;2.08;;;;;;;6.30;87.83;100717.59;4898668;29;20080;-96
2023/03/17 00:05:34;;;;;;;2.30;1.70;;;;;;;6.10;88.27;100696.66;4918473;29;20079;-96
2023/03/17 00:08:23;;;;;;;4.07;1.90;;;;;;;6.20;88.05;100718.19;4917377;29;20752;-96
2023/03/17 00:10:58;;;;;;;3.40;1.98;;;;;;;6.31;87.61;100737.84;4904538;29;20036;-96
2023/03/17 00:13:27;;;;;;;4.45;2.25;;;;;;;6.22;87.60;100726.72;4919961;29;20488;-96
2023/03/17 00:16:09;;;;;;;3.08;2.00;;;;;;;6.21;87.54;100711.81;4919343;29;20025;-96
2023/03/17 00:18:36;;;;;;;2.53;2.20;;;;;;;6.25;87.91;100729.97;4918451;29;20107;-96
2023/03/17 00:21:04;;;;;;;6.38;2.13;;;;;;;6.08;88.48;100708.56;4918665;29;20456;-96
2023/03/17 00:23:34;;;;;;;3.05;2.20;;;;;;;6.10;88.35;100703.84;4902345;29;20084;-96
2023/03/17 00:25:59;;;;;;;3.33;2.10;;;;;;;5.98;88.58;100687.84;4920045;29;20526;-96
2023/03/17 00:28:26;;;;;;;3.77;1.80;;;;;;;5.91;88.64;100672.78;4919586;29;20304;-96
2023/03/17 00:30:59;;;;;;;3.33;1.88;;;;;;;6.01;89.33;100684.75;4918230;29;20464;-96
2023/03/17 00:33:33;;;;;;;7.95;2.13;;;;;;;5.78;89.67;100661.56;4899226;29;20028;-96
2023/03/17 00:36:00;;;;;;;3.83;1.80;;;;;;;5.79;90.53;100664.00;4900566;29;20067;-96
2023/03/17 00:38:47;;;;;;;4.13;1.90;;;;;;;5.74;90.31;100661.22;4917348;29;20809;-96
2023/03/17 00:41:13;;;;;;;4.78;1.77;;;;;;;5.77;90.24;100676.72;4918380;29;20028;-96
2023/03/17 00:43:39;;;;;;;4.97;2.30;;;;;;;5.76;90.50;100681.22;4901582;29;20091;-96
2023/03/17 00:46:26;;;;;;;2.05;1.80;;;;;;;5.88;90.11;100694.53;4902070;29;20043;-96
2023/03/17 00:48:53;;;;;;;3.03;2.00;;;;;;;5.80;90.56;100676.25;4919462;29;20040;-96
2023/03/17 00:51:20;;;;;;;3.33;1.70;;;;;;;5.71;89.98;100656.34;4919240;29;20304;-96
2023/03/17 00:53:46;;;;;;;6.45;2.08;;;;;;;5.74;90.13;100661.22;4917179;29;20043;-96
2023/03/17 00:56:14;;;;;;;5.40;2.15;;;;;;;5.72;90.20;100658.78;4916905;29;20067;-96
2023/03/17 00:58:40;;;;;;;2.70;1.80;;;;;;;5.76;89.68;100661.78;4915997;29;20024;-96
2023/03/17 01:01:08;;;;;;;4.15;1.92;;;;;;;5.89;90.05;100677.53;4917358;29;20031;-96
2023/03/17 01:03:47;;;;;;;7.05;2.50;;;;;;;5.72;89.74;100655.31;4918097;29;20044;-96
2023/03/17 01:06:22;;;;;;;4.70;1.80;;;;;;;5.69;89.91;100647.78;4934641;29;20059;-96
2023/03/17 01:08:47;;;;;;;3.67;2.17;;;;;;;5.69;89.87;100653.94;4981845;23;20048;-96
2023/03/17 01:11:19;;;;;;;2.20;1.90;;;;;;;5.66;89.59;100645.59;4949125;28;20076;-95
2023/03/17 01:13:49;;;;;;;4.72;1.70;;;;;;;5.82;89.84;100682.16;4944825;29;20036;-96
2023/03/17 01:16:32;;;;;;;3.00;2.05;;;;;;;5.85;89.83;100683.53;4920995;29;20025;-95
2023/03/17 01:19:00;;;;;;;4.13;1.58;;;;;;;5.70;89.74;100663.53;4951464;28;20052;-96
2023/03/17 01:21:35;;;;;;;2.20;1.67;;;;;;;5.70;89.99;100665.34;4937038;29;20052;-95
2023/03/17 01:24:08;;;;;;;4.47;1.90;;;;;;;5.63;90.40;100668.13;4954304;29;20055;-95
2023/03/17 01:26:34;;;;;;;7.25;2.00;;;;;;;5.51;90.72;100654.00;4955718;29;20019;-96
2023/03/17 01:28:59;;;;;;;2.92;1.92;;;;;;;5.45;91.03;100647.75;4956012;28;20028;-96
2023/03/17 01:31:25;;;;;;;3.63;2.13;;;;;;;5.35;91.86;100640.34;4956572;28;20012;-96
2023/03/17 01:33:51;;;;;;;4.00;1.87;;;;;;;5.41;91.75;100663.34;4922196;29;20036;-96
2023/03/17 01:36:20;;;;;;;6.43;2.20;;;;;;;5.39;92.41;100656.63;4954156;28;20335;-96
2023/03/17 01:38:49;;;;;;;3.67;1.98;;;;;;;5.24;92.21;100630.47;4956785;28;20104;-96
2023/03/17 01:41:25;;;;;;;4.32;1.63;;;;;;;5.26;91.99;100623.09;4957272;28;20016;-96
2023/03/17 01:43:55;;;;;;;6.18;2.15;;;;;;;5.26;91.84;100626.56;4953370;29;20071;-96
2023/03/17 01:46:33;;;;;;;3.25;2.00;;;;;;;5.26;91.49;100609.81;4941811;29;20071;-96
2023/03/17 01:49:23;;;;;;;2.58;1.70;;;;;;;5.43;91.52;100647.97;4941882;29;20029;-96
2023/03/17 01:52:10;;;;;;;3.13;1.63;;;;;;;5.20;91.46;100618.72;4939148;29;20060;-96
2023/03/17 01:54:55;;;;;;;3.17;1.75;;;;;;;5.29;91.60;100634.09;4925378;29;20015;-95
2023/03/17 01:57:35;;;;;;;5.10;1.80;;;;;;;5.11;91.85;100613.72;4940270;28;20024;-96
2023/03/17 02:00:22;;;;;;;5.23;1.63;;;;;;;5.24;92.04;100641.94;4940087;28;20327;-96
2023/03/17 02:02:51;;;;;;;4.60;1.48;;;;;;;5.09;92.48;100618.44;4943889;29;20028;-96
2023/03/17 02:05:29;;;;;;;3.75;1.70;;;;;;;5.01;92.26;100605.47;4943683;29;20028;-96
2023/03/17 02:07:55;;;;;;;3.75;1.50;;;;;;;5.05;93.04;100619.13;4933104;29;20038;-96
2023/03/17 02:10:23;;;;;;;2.50;1.50;;;;;;;4.99;92.84;100616.31;4920975;29;20027;-96
2023/03/17 02:12:55;;;;;;;2.85;1.70;;;;;;;4.94;93.25;100605.56;4931812;29;20048;-96
2023/03/17 02:15:22;;;;;;;5.95;1.88;;;;;;;4.87;93.75;100604.03;4920004;29;20126;-96
2023/03/17 02:17:48;;;;;;;3.13;1.52;;;;;;;4.95;94.31;100612.47;4910351;29;20127;-96
2023/03/17 02:20:23;;;;;;;5.63;1.90;;;;;;;5.00;94.18;100615.28;4924277;29;20400;-96
2023/03/17 02:22:53;;;;;;;2.00;1.50;;;;;;;4.84;94.21;100603.44;4925240;29;20036;-96
2023/03/17 02:25:22;;;;;;;3.87;1.90;;;;;;;4.93;94.72;100603.94;4942564;29;20311;-96
2023/03/17 02:27:56;;;;;;;2.25;1.60;;;;;;;4.91;94.40;100598.06;4931795;29;20063;-96
2023/03/17 02:30:23;;;;;;;4.00;1.80;;;;;;;4.92;94.17;100582.94;4936996;29;20054;-96
2023/03/17 02:32:51;;;;;;;3.30;1.80;;;;;;;5.07;93.50;100604.56;4932995;29;20087;-96
2023/03/17 02:35:18;;;;;;;3.47;1.70;;;;;;;5.01;93.48;100576.28;4922273;29;20059;-96
2023/03/17 02:37:44;;;;;;;5.80;2.20;;;;;;;5.21;92.97;100605.19;4925107;29;20012;-96
2023/03/17 02:40:12;;;;;;;4.15;1.75;;;;;;;5.17;92.43;100587.28;4942691;28;20032;-96
2023/03/17 02:42:38;;;;;;;5.45;1.73;;;;;;;5.25;91.85;100587.75;4926046;29;20036;-96
2023/03/17 02:45:05;;;;;;;3.67;1.77;;;;;;;5.36;92.00;100596.78;4953307;29;20016;-95
2023/03/17 02:47:34;;;;;;;3.05;1.77;;;;;;;5.33;91.77;100585.78;4960593;29;20034;-95
2023/03/17 02:50:00;;;;;;;5.13;1.92;;;;;;;5.31;91.28;100581.50;4940174;29;20032;-96
2023/03/17 02:52:25;;;;;;;4.72;1.98;;;;;;;5.21;90.95;100559.19;4940788;28;20016;-96
2023/03/17 02:54:51;;;;;;;3.20;1.60;;;;;;;5.21;90.96;100553.88;4924757;29;20535;-96
2023/03/17 02:57:17;;;;;;;2.40;1.60;;;;;;;5.37;91.12;100589.63;4937547;28;20129;-96
2023/03/17 02:59:42;;;;;;;5.63;1.70;;;;;;;5.25;90.87;100576.31;4940775;28;20005;-96
2023/03/17 03:02:10;;;;;;;2.67;1.60;;;;;;;5.20;90.96;100566.38;4940302;29;20032;-96
2023/03/17 03:04:45;;;;;;;4.10;1.87;;;;;;;5.23;90.69;100576.56;4950997;28;20092;-96
2023/03/17 03:07:19;;;;;;;4.15;1.73;;;;;;;5.28;90.45;100584.66;4944162;28;20117;-95
2023/03/17 03:09:46;;;;;;;1.85;1.50;;;;;;;5.17;90.97;100564.16;4923740;29;20019;-96
2023/03/17 03:12:12;;;;;;;2.88;1.40;;;;;;;5.30;90.53;100590.53;4935166;29;20051;-96
2023/03/17 03:14:42;;;;;;;4.22;1.50;;;;;;;5.31;90.79;100578.06;4923615;29;20471;-96
2023/03/17 03:17:08;;;;;;;3.20;1.80;;;;;;;5.20;90.86;100563.72;4942862;29;20024;-96
2023/03/17 03:19:33;;;;;;;4.35;1.80;;;;;;;5.30;90.57;100574.56;4942793;29;20083;-96
2023/03/17 03:22:00;;;;;;;3.33;1.80;;;;;;;5.43;90.18;100580.75;4923188;29;20031;-96
2023/03/17 03:24:26;;;;;;;3.13;2.00;;;;;;;5.42;89.93;100584.44;4941648;28;20013;-96
2023/03/17 03:26:52;;;;;;;4.78;2.00;;;;;;;5.41;90.11;100596.91;4944381;28;20024;-96
2023/03/17 03:29:19;;;;;;;4.83;1.90;;;;;;;5.29;90.11;100588.94;4925626;29;20031;-96
2023/03/17 03:31:46;;;;;;;2.75;1.60;;;;;;;5.29;90.28;100582.78;4941914;28;20072;-95
2023/03/17 03:34:12;;;;;;;4.53;1.80;;;;;;;5.33;89.47;100575.16;4941383;28;20084;-96
2023/03/17 03:36:37;;;;;;;4.37;2.00;;;;;;;5.42;89.83;100579.13;4939510;28;20039;-96
2023/03/17 03:39:18;;;;;;;4.10;1.50;;;;;;;5.20;89.79;100560.25;4929510;29;20031;-96
2023/03/17 03:41:44;;;;;;;2.58;1.70;;;;;;;5.17;89.68;100576.66;4932507;29;20552;-96
2023/03/17 03:44:32;;;;;;;4.47;1.80;;;;;;;5.34;89.86;100603.34;4936217;29;20066;-96
2023/03/17 03:46:58;;;;;;;2.92;1.75;;;;;;;5.26;89.81;100592.03;4921288;29;20031;-95
2023/03/17 03:49:23;;;;;;;8.77;1.80;;;;;;;5.18;89.93;100586.25;4934273;29;20032;-95
2023/03/17 03:51:49;;;;;;;6.85;2.10;;;;;;;5.34;90.18;100613.97;4926788;29;20032;-96
2023/03/17 03:54:14;;;;;;;6.03;1.70;;;;;;;5.34;90.39;100614.81;4939612;29;20040;-94
2023/03/17 03:56:40;;;;;;;7.17;1.90;;;;;;;5.31;90.40;100607.28;4923794;29;20058;-96
2023/03/17 03:59:06;;;;;;;4.17;1.80;;;;;;;5.23;90.74;100613.75;4934057;29;20031;-95
2023/03/17 04:01:31;;;;;;;3.30;1.53;;;;;;;5.17;91.28;100622.59;4931951;29;20299;-96
2023/03/17 04:03:56;;;;;;;3.10;1.73;;;;;;;5.13;91.22;100627.56;4912419;29;20043;-95
2023/03/17 04:06:22;;;;;;;3.80;1.70;;;;;;;5.12;91.68;100622.47;4925164;29;20036;-95
2023/03/17 04:08:47;;;;;;;3.23;1.50;;;;;;;5.09;92.05;100622.94;4922120;29;20135;-94
2023/03/17 04:11:13;;;;;;;2.13;1.42;;;;;;;5.06;91.84;100620.72;4917722;29;20445;-95
2023/03/17 04:13:39;;;;;;;2.27;1.47;;;;;;;5.02;92.60;100622.22;4916271;29;20087;-95
2023/03/17 04:16:05;;;;;;;4.03;1.92;;;;;;;5.04;92.67;100625.47;4923413;29;20035;-95
2023/03/17 04:18:30;;;;;;;5.87;1.80;;;;;;;5.08;92.64;100621.31;4919798;29;20036;-94
2023/03/17 04:20:56;;;;;;;4.70;1.80;;;;;;;4.98;92.74;100606.72;4925951;29;20117;-95
2023/03/17 04:23:21;;;;;;;2.60;1.45;;;;;;;5.02;92.56;100611.59;4919401;29;20115;-94
2023/03/17 04:25:50;;;;;;;4.03;1.63;;;;;;;5.02;93.26;100622.22;4914264;29;20024;-93
2023/03/17 04:28:16;;;;;;;3.92;1.92;;;;;;;5.01;92.81;100616.09;4904316;29;20063;-94
2023/03/17 04:30:41;;;;;;;4.77;1.73;;;;;;;4.96;92.85;100603.47;4928976;29;20447;-94
2023/03/17 04:33:07;;;;;;;4.33;1.43;;;;;;;5.05;92.82;100611.94;4915936;29;20688;-93
2023/03/17 04:35:32;;;;;;;2.67;1.70;;;;;;;5.08;92.57;100608.84;4916103;29;20036;-93
2023/03/17 04:37:57;;;;;;;3.03;2.00;;;;;;;5.18;92.03;100621.56;4920899;29;20079;-93
2023/03/17 04:40:23;;;;;;;3.10;1.50;;;;;;;5.22;92.00;100612.13;4929903;29;20035;-94
2023/03/17 04:42:48;;;;;;;3.60;1.67;;;;;;;5.14;91.83;100613.25;4941603;29;20028;-94
2023/03/17 04:45:15;;;;;;;3.43;1.80;;;;;;;5.16;91.54;100626.31;4937210;29;20326;-93
2023/03/17 04:47:40;;;;;;;3.22;1.60;;;;;;;5.17;91.98;100622.59;4923571;29;20058;-94
2023/03/17 04:50:09;;;;;;;5.13;1.80;;;;;;;5.20;91.90;100629.34;4916068;29;20048;-95
2023/03/17 04:52:35;;;;;;;3.92;1.75;;;;;;;5.18;91.81;100629.53;4916056;29;20079;-94
2023/03/17 04:55:07;;;;;;;6.20;1.70;;;;;;;5.14;92.19;100612.44;4916437;29;20059;-94
2023/03/17 04:57:32;;;;;;;2.97;1.58;;;;;;;5.12;92.15;100609.19;4898943;29;20099;-90
2023/03/17 04:59:58;;;;;;;2.50;1.50;;;;;;;5.20;91.52;100619.50;4889148;29;20040;-91
2023/03/17 05:02:23;;;;;;;3.03;1.77;;;;;;;5.13;91.71;100613.47;4925971;29;20028;-94
2023/03/17 05:04:49;;;;;;;2.95;1.60;;;;;;;5.17;92.22;100619.16;4915267;29;20688;-93
2023/03/17 05:07:14;;;;;;;3.83;1.70;;;;;;;5.07;92.42;100601.09;4931990;29;20487;-92
2023/03/17 05:09:43;;;;;;;5.93;1.90;;;;;;;5.15;92.17;100601.59;4933375;29;20047;-95
2023/03/17 05:12:08;;;;;;;3.87;1.60;;;;;;;5.12;92.25;100604.69;4921941;29;20050;-93
2023/03/17 05:14:34;;;;;;;4.57;1.70;;;;;;;5.12;92.85;100598.56;4914878;29;20119;-91
2023/03/17 05:17:00;;;;;;;2.67;1.85;;;;;;;5.13;92.38;100592.22;4897102;29;20080;-89
2023/03/17 05:19:25;;;;;;;2.93;1.60;;;;;;;5.12;92.39;100591.41;4916019;29;20025;-89
2023/03/17 05:21:51;;;;;;;7.28;1.75;;;;;;;5.14;92.69;100588.53;4918287;29;20042;-89
2023/03/17 05:24:16;;;;;;;5.13;2.23;;;;;;;5.19;92.44;100591.31;4918206;29;20032;-88
2023/03/17 05:26:41;;;;;;;3.33;1.73;;;;;;;5.20;92.08;100582.31;4917361;29;20028;-89
2023/03/17 05:29:07;;;;;;;5.70;1.50;;;;;;;5.27;91.84;100606.94;4917648;29;20480;-88
2023/03/17 05:31:33;;;;;;;6.10;1.88;;;;;;;5.29;92.38;100617.34;4928547;29;20075;-88
2023/03/17 05:33:58;;;;;;;7.47;1.77;;;;;;;5.30;92.55;100618.94;4934065;29;20417;-88
2023/03/17 05:36:24;;;;;;;7.30;1.80;;;;;;;5.28;92.37;100613.88;4933784;29;20053;-94
2023/03/17 05:38:49;;;;;;;4.67;1.93;;;;;;;5.32;91.93;100619.53;4936718;29;20283;-89
2023/03/17 05:41:17;;;;;;;3.87;1.60;;;;;;;5.30;92.00;100630.38;4936961;29;20031;-93
2023/03/17 05:43:43;;;;;;;7.13;2.20;;;;;;;5.30;92.34;100618.94;4931238;29;20115;-87
2023/03/17 05:46:09;;;;;;;2.57;1.50;;;;;;;5.31;92.42;100617.91;4917621;29;20088;-91
2023/03/17 05:48:35;;;;;;;3.05;1.90;;;;;;;5.26;92.16;100607.16;4928214;29;20395;-90
2023/03/17 05:51:00;;;;;;;7.30;1.70;;;;;;;5.24;92.81;100607.41;4924219;29;20020;-89
2023/03/17 05:53:27;;;;;;;2.13;1.58;;;;;;;5.21;92.65;100604.34;4922898;29;20035;-91
2023/03/17 05:55:53;;;;;;;2.22;1.60;;;;;;;5.16;93.40;100613.03;4923880;29;20036;-86
2023/03/17 05:58:19;;;;;;;4.80;1.80;;;;;;;5.10;93.50;100616.59;4917464;29;20023;-87
2023/03/17 06:00:45;;;;;;;4.88;2.00;;;;;;;5.10;94.34;100619.25;4917956;29;20028;-87
2023/03/17 06:03:10;;;;;;;5.57;2.17;;;;;;;5.08;94.97;100611.50;4923304;29;20031;-88
2023/03/17 06:05:36;;;;;;;2.50;1.60;;;;;;;5.08;94.32;100606.19;4922587;29;20055;-88
2023/03/17 06:08:01;;;;;;;4.60;1.50;;;;;;;5.03;94.78;100606.03;4918187;29;20586;-89
2023/03/17 06:10:27;;;;;;;4.73;2.20;;;;;;;5.06;95.03;100605.59;4917300;29;20056;-89
2023/03/17 06:12:53;;;;;;;6.10;1.70;;;;;;;5.07;94.57;100609.06;4918065;29;20494;-89
2023/03/17 06:15:19;;;;;;;4.15;1.90;;;;;;;5.10;94.98;100614.75;4917267;29;20032;-89
2023/03/17 06:17:44;;;;;;;6.07;1.90;;;;;;;5.09;94.58;100602.50;4927470;29;20024;-88
2023/03/17 06:20:10;;;;;;;3.20;2.00;;;;;;;5.11;94.79;100608.38;4928138;29;20275;-88
2023/03/17 06:22:36;;;;;;;7.28;2.10;;;;;;;5.12;94.92;100609.19;4921875;29;20028;-89
2023/03/17 06:25:03;;;;;;;4.68;1.90;;;;;;;5.18;95.33;100618.13;4917501;29;20115;-89
2023/03/17 06:27:28;;;;;;;4.20;2.17;;;;;;;5.22;95.25;100612.13;4916976;29;20032;-89
2023/03/17 06:29:54;;;;;;;3.17;1.80;;;;;;;5.27;94.53;100612.25;4915278;29;20276;-90
2023/03/17 06:32:19;;;;;;;5.37;2.17;;;;;;;5.37;94.41;100616.19;4916164;29;20095;-89
2023/03/17 06:34:44;;;;;;;3.23;2.00;;;;;;;5.46;93.78;100628.13;4922475;29;20491;-90
2023/03/17 06:37:10;;;;;;;4.70;1.98;;;;;;;5.47;93.95;100616.47;4916802;29;20024;-90
2023/03/17 06:39:36;;;;;;;4.97;2.03;;;;;;;5.57;93.27;100627.31;4910702;29;20032;-90
2023/03/17 06:42:02;;;;;;;3.90;2.30;;;;;;;5.59;93.14;100617.28;4934736;29;20391;-90
2023/03/17 06:44:27;;;;;;;5.38;2.38;;;;;;;5.64;92.83;100613.91;4923328;29;20055;-92
2023/03/17 06:46:53;;;;;;;4.23;1.97;;;;;;;5.68;92.73;100601.78;4916853;29;20103;-90
2023/03/17 06:49:18;;;;;;;3.77;1.70;;;;;;;5.74;92.40;100602.72;4932157;29;20036;-89
2023/03/17 06:51:44;;;;;;;5.27;2.17;;;;;;;5.84;91.79;100607.47;4917195;29;20056;-91
2023/03/17 06:54:09;;;;;;;2.95;2.20;;;;;;;5.93;90.91;100618.56;4924424;29;20179;-93
2023/03/17 06:56:35;;;;;;;10.07;2.37;;;;;;;5.99;91.55;100620.31;4927186;29;20028;-93
2023/03/17 06:59:00;;;;;;;4.35;2.20;;;;;;;6.06;90.62;100619.16;4917799;29;20058;-94
2023/03/17 07:01:26;;;;;;;4.57;2.47;;;;;;;6.13;90.27;100619.03;4934916;29;20086;-94
2023/03/17 07:03:52;;;;;;;5.13;2.10;;;;;;;6.18;90.50;100619.16;4936048;29;20031;-95
2023/03/17 07:06:19;;;;;;;5.32;1.98;;;;;;;6.29;90.14;100633.50;4936800;29;20038;-94
2023/03/17 07:08:45;;;;;;;4.40;2.05;;;;;;;6.35;89.43;100635.22;4936972;29;20031;-95
2023/03/17 07:11:11;;;;;;;7.18;2.10;;;;;;;6.46;89.45;100619.47;4924548;29;20032;-95
2023/03/17 07:13:37;;;;;;;13.00;2.40;;;;;;;6.54;88.73;100632.38;4922410;29;20096;-95
2023/03/17 07:16:03;;;;;;;7.60;2.47;;;;;;;6.63;88.56;100625.66;4934607;29;20024;-93
2023/03/17 07:18:30;;;;;;;5.53;2.40;;;;;;;6.71;87.60;100616.50;4941866;28;20044;-94
2023/03/17 07:20:57;;;;;;;8.00;2.20;;;;;;;6.77;87.42;100615.53;4940873;28;20128;-93
2023/03/17 07:23:22;;;;;;;6.97;2.30;;;;;;;6.90;87.05;100630.44;4940887;28;20096;-92
2023/03/17 07:25:48;;;;;;;8.83;2.60;;;;;;;6.97;86.33;100631.09;4936435;28;20060;-93
2023/03/17 07:28:15;;;;;;;8.30;2.22;;;;;;;7.06;85.66;100620.88;4913558;29;20020;-93
2023/03/17 07:30:45;;;;;;;7.32;2.88;;;;;;;7.14;85.54;100622.34;4929210;29;20530;-96
2023/03/17 07:33:11;;;;;;;4.88;2.00;;;;;;;7.25;85.15;100610.00;4939661;29;20034;-93
2023/03/17 07:35:36;;;;;;;8.85;1.85;;;;;;;7.33;84.15;100612.25;4922539;29;20399;-93
2023/03/17 07:38:01;;;;;;;6.17;2.43;;;;;;;7.47;84.63;100617.28;4944323;29;20032;-93
2023/03/17 07:40:27;;;;;;;10.87;2.50;;;;;;;7.55;83.27;100608.88;4937387;29;20111;-93
2023/03/17 07:42:52;;;;;;;5.60;2.30;;;;;;;7.66;83.18;100610.66;4935792;29;20468;-94
2023/03/17 07:45:17;;;;;;;5.60;2.60;;;;;;;7.71;82.30;100607.25;4933615;29;20180;-93
2023/03/17 07:47:45;;;;;;;7.33;2.30;;;;;;;7.80;82.38;100613.78;4915994;29;20043;-93
2023/03/17 07:50:10;;;;;;;7.00;2.03;;;;;;;7.86;81.63;100618.16;4916536;29;20028;-94
2023/03/17 07:52:36;;;;;;;8.73;2.30;;;;;;;7.93;81.57;100609.97;4916533;29;20107;-93
2023/03/17 07:55:04;;;;;;;8.23;2.78;;;;;;;7.94;80.97;100606.25;4899198;29;20048;-93
2023/03/17 07:57:29;;;;;;;5.67;2.50;;;;;;;8.02;81.25;100611.19;4919797;29;20642;-94
2023/03/17 07:59:54;;;;;;;8.50;2.83;;;;;;;8.10;81.48;100611.78;4902008;29;20340;-93
2023/03/17 08:02:20;;;;;;;10.63;2.80;;;;;;;8.15;80.20;100618.00;4919096;29;20020;-93
2023/03/17 08:04:46;;;;;;;12.38;2.50;;;;;;;8.21;80.66;100621.56;4919544;29;20060;-93
2023/03/17 08:07:11;;;;;;;5.60;2.40;;;;;;;8.32;80.73;100634.00;4916486;29;20036;-93
2023/03/17 08:09:37;;;;;;;7.55;2.60;;;;;;;8.39;79.71;100631.13;4915560;29;20103;-94
2023/03/17 08:12:03;;;;;;;7.40;2.57;;;;;;;8.45;79.75;100624.81;4915657;29;20025;-92
2023/03/17 08:14:29;;;;;;;9.23;2.42;;;;;;;8.53;79.55;100622.78;4915477;29;20047;-92
2023/03/17 08:16:55;;;;;;;7.17;2.87;;;;;;;8.60;78.36;100618.06;4920019;29;20024;-93
2023/03/17 08:19:21;;;;;;;8.57;2.83;;;;;;;8.66;78.30;100622.41;4926410;29;20045;-92
2023/03/17 08:21:46;;;;;;;10.23;3.00;;;;;;;8.70;78.37;100618.16;4915140;29;20024;-93
2023/03/17 08:24:12;;;;;;;9.55;2.55;;;;;;;8.82;77.26;100620.72;4915958;29;20032;-93
2023/03/17 08:26:38;;;;;;;6.53;2.67;;;;;;;8.98;77.72;100634.22;4917145;29;20036;-93
2023/03/17 08:29:04;;;;;;;6.83;3.03;;;;;;;9.18;76.04;100637.09;4934461;29;20032;-93
2023/03/17 08:31:29;;;;;;;14.10;3.03;;;;;;;9.35;74.76;100626.31;4934720;29;20616;-93
2023/03/17 08:33:55;;;;;;;8.50;2.40;;;;;;;9.50;74.45;100627.50;4917269;29;20107;-95
2023/03/17 08:36:25;;;;;;;11.88;3.00;;;;;;;9.69;73.03;100625.22;4908342;29;20028;-93
2023/03/17 08:38:51;;;;;;;10.77;3.22;;;;;;;9.79;72.04;100619.13;4918149;29;20468;-94
2023/03/17 08:41:19;;;;;;;10.18;3.00;;;;;;;9.90;72.20;100622.69;4915881;29;20425;-94
2023/03/17 08:43:45;;;;;;;10.25;2.65;;;;;;;10.00;71.02;100612.06;4915283;29;20480;-94
2023/03/17 08:46:21;;;;;;;10.48;2.90;;;;;;;10.04;71.00;100599.78;4915697;29;20036;-95
2023/03/17 08:48:49;;;;;;;10.80;2.97;;;;;;;10.05;70.55;100582.63;4932039;29;20055;-95
2023/03/17 08:51:16;;;;;;;11.20;2.73;;;;;;;10.09;70.02;100586.38;4934601;29;20339;-95
2023/03/17 08:53:42;;;;;;;11.32;2.70;;;;;;;10.24;70.23;100607.09;4918198;29;20445;-96
2023/03/17 08:56:07;;;;;;;13.68;2.97;;;;;;;10.38;70.61;100606.59;4915385;29;20056;-93
2023/03/17 08:58:34;;;;;;;10.97;2.90;;;;;;;10.53;69.87;100617.41;4929778;29;20036;-94
2023/03/17 09:01:01;;;;;;;9.10;2.20;;;;;;;10.75;70.37;100624.44;4938901;29;20024;-95
2023/03/17 09:03:27;;;;;;;13.55;2.80;;;;;;;10.92;69.06;100616.19;4917347;29;20027;-94
2023/03/17 09:05:53;;;;;;;8.85;2.63;;;;;;;11.09;68.09;100615.16;4934261;29;20031;-96
2023/03/17 09:08:20;;;;;;;10.50;3.28;;;;;;;11.26;67.53;100609.50;4903691;29;20084;-95
2023/03/17 09:10:46;;;;;;;6.43;2.27;;;;;;;11.41;66.74;100616.75;4915914;29;20036;-94
2023/03/17 09:13:12;;;;;;;9.53;2.83;;;;;;;11.53;65.06;100622.66;4915227;29;20282;-92
2023/03/17 09:15:38;;;;;;;9.15;2.50;;;;;;;11.70;66.28;100616.19;4898273;29;20033;-93
2023/03/17 09:18:04;;;;;;;7.47;2.47;;;;;;;11.76;64.94;100615.94;4914732;29;20405;-93
2023/03/17 09:20:30;;;;;;;7.80;2.50;;;;;;;11.84;64.16;100619.97;4914723;29;20060;-93
2023/03/17 09:22:56;;;;;;;6.50;2.50;;;;;;;11.83;63.96;100612.97;4915300;29;20280;-93
2023/03/17 09:25:21;;;;;;;3.83;2.45;;;;;;;11.92;63.47;100622.06;4914765;29;20548;-92
2023/03/17 09:27:47;;;;;;;9.53;2.70;;;;;;;12.08;64.61;100624.75;4922480;29;20032;-95
2023/03/17 09:30:12;;;;;;;11.07;2.70;;;;;;;12.26;62.91;100623.38;4934118;29;20035;-93
2023/03/17 09:32:38;;;;;;;11.05;2.63;;;;;;;12.30;61.98;100626.31;4933566;29;20448;-95
2023/03/17 09:35:04;;;;;;;4.93;2.30;;;;;;;12.31;61.77;100622.53;4933985;29;20032;-94
2023/03/17 09:37:33;;;;;;;7.13;2.27;;;;;;;12.35;62.34;100618.25;4933515;29;20046;-94
2023/03/17 09:39:58;;;;;;;6.13;2.47;;;;;;;12.48;61.95;100606.09;4933476;29;20031;-94
2023/03/17 09:42:33;;;;;;;6.03;2.70;;;;;;;12.59;61.67;100609.53;4929545;29;20111;-95
2023/03/17 09:45:23;;;;;;;5.85;2.72;;;;;;;12.65;61.44;100611.94;4914289;29;20032;-93
2023/03/17 09:47:54;;;;;;;5.60;2.58;;;;;;;12.67;61.49;100603.56;4914290;29;20032;-94
2023/03/17 09:50:47;;;;;;;7.05;2.90;;;;;;;12.59;61.06;100601.47;4914442;29;20036;-93
2023/03/17 09:53:25;;;;;;;6.13;2.45;;;;;;;12.56;62.20;100602.81;4914497;29;20024;-93
2023/03/17 09:55:56;;;;;;;5.93;2.53;;;;;;;12.69;62.48;100606.78;4928133;29;20039;-93
2023/03/17 09:58:29;;;;;;;3.53;2.47;;;;;;;12.95;62.83;100603.97;4913753;29;20032;-94
2023/03/17 10:00:54;;;;;;;8.40;2.50;;;;;;;12.98;61.58;100598.00;4914665;29;20025;-94
2023/03/17 10:03:21;;;;;;;5.63;2.60;;;;;;;12.96;61.58;100595.59;4915202;29;20428;-93
2023/03/17 10:05:47;;;;;;;6.10;2.70;;;;;;;12.82;61.32;100595.41;4918904;29;20052;-93
2023/03/17 10:08:22;;;;;;;2.93;2.37;;;;;;;12.69;61.92;100612.16;4930799;29;20056;-92
2023/03/17 10:11:13;;;;;;;5.07;2.72;;;;;;;12.53;63.33;100601.50;4934930;29;20056;-94
2023/03/17 10:14:00;;;;;;;6.88;2.75;;;;;;;12.53;65.44;100609.56;4901327;29;20036;-93
2023/03/17 10:16:32;;;;;;;5.50;2.58;;;;;;;12.45;67.41;100607.44;4918507;29;20122;-94
2023/03/17 10:19:08;;;;;;;8.20;2.47;;;;;;;12.51;69.32;100633.22;4921260;29;20110;-94
2023/03/17 10:21:46;;;;;;;4.83;2.70;;;;;;;12.65;72.17;100646.06;4937170;29;20775;-94
2023/03/17 10:24:11;;;;;;;3.45;2.58;;;;;;;12.78;71.87;100626.63;4935406;29;20395;-94
2023/03/17 10:26:42;;;;;;;6.57;2.50;;;;;;;12.87;71.26;100638.41;4918130;29;20036;-94
2023/03/17 10:29:16;;;;;;;5.65;2.45;;;;;;;12.98;77.09;100630.28;4918579;29;20115;-95
2023/03/17 10:31:42;;;;;;;8.60;2.80;;;;;;;13.06;79.38;100645.00;4926606;29;20032;-95
2023/03/17 10:34:26;;;;;;;5.28;2.60;;;;;;;13.15;80.34;100638.75;4937272;29;20043;-94
2023/03/17 10:37:05;;;;;;;7.65;2.80;;;;;;;13.40;74.25;100633.50;4936991;29;20031;-95
2023/03/17 10:39:40;;;;;;;5.43;2.80;;;;;;;13.72;74.74;100642.94;4937245;29;20476;-94
2023/03/17 10:42:11;;;;;;;4.50;2.90;;;;;;;13.94;76.11;100631.69;4921271;29;20062;-95
2023/03/17 10:44:53;;;;;;;4.88;2.65;;;;;;;14.23;76.79;100639.72;4936766;29;20024;-94
2023/03/17 10:47:30;;;;;;;4.75;2.40;;;;;;;14.54;71.16;100633.97;4923856;29;20033;-95
2023/03/17 10:49:57;;;;;;;6.20;2.60;;;;;;;14.73;70.31;100632.41;4923089;29;20031;-94
2023/03/17 10:52:29;;;;;;;9.70;2.70;;;;;;;14.86;66.85;100630.91;4925355;29;20024;-96
2023/03/17 10:55:00;;;;;;;4.72;2.58;;;;;;;15.10;65.02;100636.22;4935121;29;20038;-93
2023/03/17 10:57:26;;;;;;;6.13;2.53;;;;;;;15.34;63.42;100630.72;4933777;29;20063;-95
2023/03/17 10:59:54;;;;;;;5.83;2.33;;;;;;;15.56;60.40;100627.38;4920709;29;20383;-94
2023/03/17 11:02:34;;;;;;;4.80;2.67;;;;;;;15.86;61.52;100632.56;4937905;29;20020;-93
2023/03/17 11:05:16;;;;;;;4.78;2.55;;;;;;;16.13;61.10;100622.88;4933031;29;20027;-94
2023/03/17 11:07:42;;;;;;;3.40;2.35;;;;;;;16.27;57.46;100628.28;4950917;29;20039;-94
2023/03/17 11:10:20;;;;;;;9.93;2.80;;;;;;;16.44;60.08;100620.34;4938874;29;20039;-94
2023/03/17 11:12:57;;;;;;;7.03;2.80;;;;;;;16.54;57.21;100613.13;4937764;29;20028;-92
2023/03/17 11:16:06;;;;;;;6.93;3.03;;;;;;;16.41;59.56;100612.03;4921838;29;20050;-93
2023/03/17 11:18:36;;;;;;;4.70;3.03;;;;;;;16.18;55.51;100609.25;4905414;29;20044;-93
2023/03/17 11:21:08;;;;;;;5.82;2.90;;;;;;;16.17;56.98;100613.88;4928642;29;20024;-93
2023/03/17 11:23:45;;;;;;;6.07;3.25;;;;;;;16.08;56.60;100604.84;4928548;29;20020;-94
2023/03/17 11:26:36;;;;;;;6.38;3.00;;;;;;;16.12;59.24;100605.06;4916375;29;20035;-96
2023/03/17 11:29:23;;;;;;;4.47;2.70;;;;;;;16.17;57.28;100599.53;4933345;29;20403;-93
2023/03/17 11:32:15;;;;;;;6.88;2.80;;;;;;;16.35;56.46;100604.03;4920827;29;20044;-94
2023/03/17 11:35:04;;;;;;;4.30;2.65;;;;;;;16.39;57.49;100598.84;4919890;29;20130;-94
2023/03/17 11:37:51;;;;;;;8.10;2.80;;;;;;;16.44;57.02;100616.84;4927215;29;20441;-96
2023/03/17 11:40:17;;;;;;;7.28;2.70;;;;;;;16.41;56.28;100614.75;4916398;29;20038;-95